createdAt,value
2022-08-04T00:02:04.657Z,12.80
2022-08-04T00:04:37.281Z,12.95
2022-08-04T00:07:10.217Z,12.65
2022-08-04T00:09:43.176Z,12.43
2022-08-04T00:12:12.751Z,13.45
2022-08-04T00:14:51.344Z,12.95
2022-08-04T00:17:21.847Z,13.02
2022-08-04T00:19:50.968Z,13.02
2022-08-04T00:22:23.570Z,13.55
2022-08-04T00:24:52.012Z,12.80
2022-08-04T00:27:20.554Z,13.35
2022-08-04T00:29:49.467Z,12.93
2022-08-04T00:32:33.846Z,13.55
2022-08-04T00:35:03.960Z,13.32
2022-08-04T00:37:33.805Z,13.32
2022-08-04T00:40:02.343Z,12.45
2022-08-04T00:42:58.685Z,13.15
2022-08-04T00:46:16.588Z,13.00
2022-08-04T00:49:27.993Z,13.27
2022-08-04T00:52:32.340Z,12.65
2022-08-04T00:55:09.309Z,12.38
2022-08-04T00:58:16.583Z,12.98
2022-08-04T01:00:50.413Z,13.45
2022-08-04T01:03:24.748Z,13.80
2022-08-04T01:06:00.049Z,12.85
2022-08-04T01:09:00.894Z,13.45
2022-08-04T01:11:56.918Z,13.38
2022-08-04T01:14:43.409Z,14.30
2022-08-04T01:17:21.520Z,13.75
2022-08-04T01:20:06.720Z,13.48
2022-08-04T01:23:37.717Z,13.57
2022-08-04T01:26:43.855Z,14.30
2022-08-04T01:29:24.803Z,13.63
2022-08-04T01:32:03.578Z,13.80
2022-08-04T01:34:36.621Z,13.25
2022-08-04T01:37:13.476Z,14.02
2022-08-04T01:39:50.708Z,13.82
2022-08-04T01:42:31.696Z,14.10
2022-08-04T01:45:05.684Z,13.98
2022-08-04T01:47:39.179Z,14.65
2022-08-04T01:50:09.600Z,14.95
2022-08-04T01:52:39.575Z,14.60
2022-08-04T01:55:10.643Z,14.95
2022-08-04T01:57:42.716Z,15.75
2022-08-04T02:00:14.061Z,14.20
2022-08-04T02:02:42.720Z,15.77
2022-08-04T02:05:11.941Z,15.07
2022-08-04T02:08:03.673Z,15.95
2022-08-04T02:10:37.119Z,14.38
2022-08-04T02:13:16.669Z,14.98
2022-08-04T02:15:54.608Z,13.95
2022-08-04T02:18:25.873Z,14.80
2022-08-04T02:20:59.046Z,14.77
2022-08-04T02:23:33.193Z,15.88
2022-08-04T02:26:03.698Z,14.57
2022-08-04T02:28:38.834Z,15.23
2022-08-04T02:31:16.743Z,15.38
2022-08-04T02:33:46.624Z,15.50
2022-08-04T02:36:20.031Z,15.38
2022-08-04T02:39:00.381Z,16.00
2022-08-04T02:41:31.123Z,15.35
2022-08-04T02:44:01.427Z,15.25
2022-08-04T02:46:32.276Z,15.65
2022-08-04T02:49:02.733Z,15.32
2022-08-04T02:51:32.172Z,15.00
2022-08-04T02:54:01.486Z,15.45
2022-08-04T02:56:31.946Z,15.30
2022-08-04T02:59:01.948Z,15.95
2022-08-04T03:01:32.367Z,15.70
2022-08-04T03:04:25.002Z,15.48
2022-08-04T03:07:30.581Z,15.93
2022-08-04T03:10:44.295Z,15.65
2022-08-04T03:13:55.013Z,16.33
2022-08-04T03:16:49.043Z,16.17
2022-08-04T03:19:57.728Z,15.02
2022-08-04T03:23:12.114Z,15.73
2022-08-04T03:26:20.893Z,15.07
2022-08-04T03:29:36.665Z,16.02
2022-08-04T03:32:47.959Z,15.18
2022-08-04T03:35:38.627Z,15.52
2022-08-04T03:38:24.665Z,14.38
2022-08-04T03:41:07.774Z,15.10
2022-08-04T03:44:06.211Z,15.23
2022-08-04T03:47:17.273Z,15.00
2022-08-04T03:50:30.842Z,14.25
2022-08-04T03:53:17.737Z,15.65
2022-08-04T03:56:07.562Z,15.45
2022-08-04T03:59:24.590Z,14.70
2022-08-04T04:02:35.878Z,14.88
2022-08-04T04:05:41.715Z,15.15
2022-08-04T04:08:59.793Z,15.07
2022-08-04T04:12:17.594Z,14.75
2022-08-04T04:14:57.128Z,15.10
2022-08-04T04:17:52.754Z,13.82
2022-08-04T04:21:01.813Z,14.35
2022-08-04T04:23:44.429Z,14.45
2022-08-04T04:26:50.586Z,14.52
2022-08-04T04:30:01.884Z,13.65
2022-08-04T04:32:40.389Z,13.73
2022-08-04T04:35:24.262Z,14.13
2022-08-04T04:38:26.309Z,14.40
2022-08-04T04:41:05.664Z,14.10
2022-08-04T04:44:04.790Z,13.50
2022-08-04T04:46:39.908Z,13.90
2022-08-04T04:49:16.257Z,13.55
2022-08-04T04:51:49.491Z,13.50
2022-08-04T04:54:29.575Z,13.82
2022-08-04T04:57:08.809Z,13.85
2022-08-04T04:59:40.409Z,13.65
2022-08-04T05:02:42.679Z,13.65
2022-08-04T05:05:23.711Z,12.93
2022-08-04T05:08:44.333Z,12.75
2022-08-04T05:14:31.636Z,12.85
2022-08-04T05:14:55.694Z,12.35
2022-08-04T05:17:27.606Z,12.05
2022-08-04T05:20:02.227Z,12.65
2022-08-04T05:22:34.097Z,13.05
2022-08-04T05:25:07.131Z,11.85
2022-08-04T05:27:41.281Z,12.75
2022-08-04T05:30:10.723Z,13.00
2022-08-04T05:32:45.816Z,12.68
2022-08-04T05:35:56.307Z,12.45
2022-08-04T05:38:06.642Z,12.80
2022-08-04T05:40:35.156Z,11.93
2022-08-04T05:43:04.933Z,11.75
2022-08-04T05:45:38.892Z,12.15
2022-08-04T05:48:09.322Z,11.93
2022-08-04T05:50:37.865Z,11.40
2022-08-04T05:53:06.377Z,12.40
2022-08-04T05:55:58.967Z,11.60
2022-08-04T05:58:24.814Z,12.05
2022-08-04T06:00:53.358Z,11.45
2022-08-04T06:03:21.917Z,10.15
2022-08-04T06:05:50.371Z,11.02
2022-08-04T06:08:19.575Z,10.73
2022-08-04T06:10:48.183Z,11.55
2022-08-04T06:13:48.456Z,10.25
2022-08-04T06:16:28.642Z,10.63
2022-08-04T06:19:59.046Z,11.10
2022-08-04T06:21:49.433Z,10.75
2022-08-04T06:24:20.843Z,10.35
2022-08-04T06:26:49.634Z,10.80
2022-08-04T06:29:24.991Z,10.23
2022-08-04T06:32:27.438Z,10.40
2022-08-04T06:34:54.985Z,10.10
2022-08-04T06:37:42.523Z,9.68
2022-08-04T06:40:30.439Z,9.80
2022-08-04T06:43:02.001Z,9.40
2022-08-04T06:45:30.675Z,9.80
2022-08-04T06:48:00.520Z,10.30
2022-08-04T06:51:31.390Z,9.45
2022-08-04T06:53:17.853Z,9.60
2022-08-04T06:55:48.364Z,9.60
2022-08-04T06:58:16.880Z,10.07
2022-08-04T07:00:47.154Z,9.73
2022-08-04T07:03:17.870Z,9.00
2022-08-04T07:05:48.139Z,8.90
2022-08-04T07:08:16.837Z,9.07
2022-08-04T07:10:45.297Z,8.63
2022-08-04T07:13:13.758Z,8.98
2022-08-04T07:15:43.685Z,8.73
2022-08-04T07:18:12.119Z,8.77
2022-08-04T07:20:43.536Z,8.57
2022-08-04T07:23:13.850Z,8.73
2022-08-04T07:25:58.842Z,8.70
2022-08-04T07:28:31.570Z,8.60
2022-08-04T07:31:00.560Z,8.52
2022-08-04T07:33:29.037Z,8.77
2022-08-04T07:36:09.224Z,8.23
2022-08-04T07:38:48.326Z,9.30
2022-08-04T07:41:38.515Z,8.75
2022-08-04T07:44:07.376Z,8.27
2022-08-04T07:46:35.932Z,7.68
2022-08-04T07:49:04.553Z,7.85
2022-08-04T07:51:35.507Z,7.45
2022-08-04T07:54:05.351Z,7.20
2022-08-04T07:56:35.123Z,7.78
2022-08-04T07:59:03.869Z,7.45
2022-08-04T08:01:32.357Z,7.15
2022-08-04T08:04:00.994Z,6.25
2022-08-04T08:06:35.531Z,6.55
2022-08-04T08:09:13.510Z,6.07
2022-08-04T08:12:38.720Z,6.13
2022-08-04T08:14:31.743Z,6.03
2022-08-04T08:17:01.706Z,5.95
2022-08-04T08:19:30.463Z,6.25
2022-08-04T08:22:00.525Z,6.10
2022-08-04T08:24:31.864Z,6.15
2022-08-04T08:27:01.157Z,5.95
2022-08-04T08:29:29.863Z,5.93
2022-08-04T08:32:02.743Z,6.25
2022-08-04T08:34:35.585Z,5.82
2022-08-04T08:37:08.698Z,5.72
2022-08-04T08:39:42.394Z,5.88
2022-08-04T08:42:52.162Z,6.13
2022-08-04T08:46:48.554Z,5.50
2022-08-04T08:50:01.638Z,5.93
2022-08-04T08:53:01.013Z,5.40
2022-08-04T08:55:42.773Z,5.80
2022-08-04T08:58:39.811Z,6.10
2022-08-04T09:01:14.202Z,6.05
2022-08-04T09:04:32.366Z,5.75
2022-08-04T09:07:11.987Z,5.78
2022-08-04T09:10:08.300Z,5.38
2022-08-04T09:12:46.081Z,5.18
2022-08-04T09:15:16.871Z,5.47
2022-08-04T09:17:49.946Z,4.80
2022-08-04T09:20:26.727Z,5.68
2022-08-04T09:23:07.337Z,4.68
2022-08-04T09:25:40.475Z,4.55
2022-08-04T09:28:51.639Z,4.95
2022-08-04T09:31:15.137Z,4.55
2022-08-04T09:33:49.329Z,4.63
2022-08-04T09:36:33.229Z,4.45
2022-08-04T09:39:11.307Z,4.72
2022-08-04T09:41:52.550Z,4.30
2022-08-04T09:44:49.438Z,4.57
2022-08-04T09:47:25.669Z,4.53
2022-08-04T09:50:17.847Z,4.43
2022-08-04T09:52:50.786Z,4.60
2022-08-04T09:55:27.837Z,4.30
2022-08-04T09:58:02.869Z,4.38
2022-08-04T10:00:40.857Z,4.15
2022-08-04T10:03:14.774Z,4.30
2022-08-04T10:05:57.174Z,3.90
2022-08-04T10:08:40.328Z,4.50
2022-08-04T10:11:13.375Z,4.53
2022-08-04T10:13:49.976Z,4.55
2022-08-04T10:16:39.377Z,4.50
2022-08-04T10:19:16.910Z,4.72
2022-08-04T10:21:59.607Z,5.00
2022-08-04T10:24:57.423Z,5.00
2022-08-04T10:27:31.271Z,4.95
2022-08-04T10:30:10.328Z,5.43
2022-08-04T10:32:45.430Z,5.28
2022-08-04T10:35:15.936Z,5.28
2022-08-04T10:37:59.363Z,5.50
2022-08-04T10:40:45.204Z,4.97
2022-08-04T10:43:22.820Z,5.32
2022-08-04T10:45:57.813Z,5.45
2022-08-04T10:48:37.775Z,5.72
2022-08-04T10:51:16.820Z,5.38
2022-08-04T10:53:45.802Z,5.32
2022-08-04T10:56:19.104Z,4.90
2022-08-04T10:58:56.114Z,5.80
2022-08-04T11:02:01.691Z,5.05
2022-08-04T11:04:27.118Z,5.40
2022-08-04T11:06:56.793Z,5.35
2022-08-04T11:09:25.323Z,5.40
2022-08-04T11:12:01.778Z,5.22
2022-08-04T11:14:36.254Z,5.32
2022-08-04T11:17:07.833Z,5.22
2022-08-04T11:19:46.254Z,5.10
2022-08-04T11:22:24.072Z,5.25
2022-08-04T11:24:57.067Z,4.95
2022-08-04T11:27:30.619Z,5.00
2022-08-04T11:30:05.003Z,4.93
2022-08-04T11:32:38.889Z,5.57
2022-08-04T11:35:11.295Z,4.88
2022-08-04T11:37:46.876Z,4.95
2022-08-04T11:40:22.115Z,4.55
2022-08-04T11:42:55.069Z,4.80
2022-08-04T11:45:32.179Z,5.05
2022-08-04T11:48:02.552Z,4.78
2022-08-04T11:50:38.645Z,5.20
2022-08-04T11:53:07.596Z,4.80
2022-08-04T11:56:07.684Z,5.18
2022-08-04T11:58:24.735Z,5.03
2022-08-04T12:00:59.606Z,4.88
2022-08-04T12:03:37.587Z,4.97
2022-08-04T12:06:18.966Z,4.68
2022-08-04T12:09:03.750Z,5.07
2022-08-04T12:11:56.210Z,5.13
2022-08-04T12:14:32.000Z,5.40
2022-08-04T12:17:02.318Z,5.78
2022-08-04T12:19:54.732Z,5.28
2022-08-04T12:22:31.562Z,5.32
2022-08-04T12:25:04.138Z,5.60
2022-08-04T12:27:37.600Z,5.30
2022-08-04T12:30:58.873Z,5.50
2022-08-04T12:33:00.613Z,5.68
2022-08-04T12:35:35.153Z,5.32
2022-08-04T12:38:07.461Z,5.30
2022-08-04T12:40:40.562Z,5.40
2022-08-04T12:43:12.896Z,5.53
2022-08-04T12:45:48.666Z,5.25
2022-08-04T12:48:21.127Z,5.15
2022-08-04T12:50:50.207Z,5.30
2022-08-04T12:53:32.177Z,5.45
2022-08-04T12:56:02.367Z,5.45
2022-08-04T12:58:42.697Z,5.30
2022-08-04T13:02:07.411Z,5.00
2022-08-04T13:04:06.082Z,5.28
2022-08-04T13:06:36.226Z,5.25
2022-08-04T13:09:09.628Z,4.68
2022-08-04T13:11:52.679Z,5.68
2022-08-04T13:14:28.310Z,5.07
2022-08-04T13:17:00.396Z,4.95
2022-08-04T13:19:31.475Z,5.18
2022-08-04T13:22:09.731Z,4.95
2022-08-04T13:24:56.735Z,5.35
2022-08-04T13:27:27.909Z,5.00
2022-08-04T13:30:23.186Z,4.82
2022-08-04T13:32:56.528Z,5.45
2022-08-04T13:35:55.884Z,5.30
2022-08-04T13:38:15.306Z,5.40
2022-08-04T13:40:45.564Z,5.10
2022-08-04T13:44:15.695Z,5.20
2022-08-04T13:46:28.136Z,5.40
2022-08-04T13:51:57.305Z,4.70
2022-08-04T13:54:30.461Z,5.22
2022-08-04T13:57:01.724Z,5.00
2022-08-04T13:59:30.179Z,4.70
2022-08-04T14:02:01.924Z,5.30
2022-08-04T14:04:31.572Z,4.80
2022-08-04T14:07:04.556Z,4.90
2022-08-04T14:09:36.006Z,5.57
2022-08-04T14:12:38.320Z,5.32
2022-08-04T14:14:59.104Z,4.75
2022-08-04T14:17:29.880Z,5.30
2022-08-04T14:20:00.464Z,4.82
2022-08-04T14:22:36.889Z,4.90
2022-08-04T14:25:15.607Z,5.40
2022-08-04T14:27:48.148Z,5.90
2022-08-04T14:30:27.974Z,4.70
2022-08-04T14:34:02.085Z,5.00
2022-08-04T14:35:58.475Z,5.20
2022-08-04T14:38:26.949Z,5.68
2022-08-04T14:40:55.364Z,5.47
2022-08-04T14:43:25.370Z,5.32
2022-08-04T14:45:55.468Z,5.32
2022-08-04T14:48:25.406Z,5.32
2022-08-04T14:50:53.847Z,5.63
2022-08-04T14:53:26.363Z,5.03
2022-08-04T14:55:57.179Z,5.03
2022-08-04T14:58:36.400Z,5.43
2022-08-04T15:01:10.146Z,5.68
2022-08-04T15:03:49.957Z,4.88
2022-08-04T15:06:23.728Z,5.05
2022-08-04T15:08:53.370Z,5.28
2022-08-04T15:11:23.281Z,5.28
2022-08-04T15:13:54.086Z,5.10
2022-08-04T15:16:22.774Z,5.35
2022-08-04T15:18:54.466Z,5.57
2022-08-04T15:21:23.616Z,5.47
2022-08-04T15:23:52.029Z,5.30
2022-08-04T15:26:26.812Z,5.35
2022-08-04T15:28:59.853Z,5.15
2022-08-04T15:32:03.799Z,5.38
2022-08-04T15:34:16.999Z,5.45
2022-08-04T15:36:56.881Z,5.18
2022-08-04T15:39:37.053Z,5.30
2022-08-04T15:42:20.883Z,5.05
2022-08-04T15:45:20.702Z,5.03
2022-08-04T15:48:28.561Z,5.38
2022-08-04T15:51:15.312Z,5.88
2022-08-04T15:54:32.998Z,5.43
2022-08-04T15:57:03.441Z,5.45
2022-08-04T16:00:01.360Z,5.82
2022-08-04T16:02:52.444Z,5.30
2022-08-04T16:05:42.394Z,5.53
2022-08-04T16:08:16.580Z,5.40
2022-08-04T16:10:50.316Z,5.68
2022-08-04T16:13:20.794Z,5.63
2022-08-04T16:15:51.878Z,5.32
2022-08-04T16:18:43.768Z,5.20
2022-08-04T16:21:21.879Z,5.18
2022-08-04T16:24:21.861Z,5.20
2022-08-04T16:26:54.725Z,5.40
2022-08-04T16:29:39.424Z,5.20
2022-08-04T16:32:22.574Z,5.63
2022-08-04T16:34:56.893Z,5.57
2022-08-04T16:37:34.486Z,5.88
2022-08-04T16:40:37.726Z,5.63
2022-08-04T16:43:09.411Z,5.63
2022-08-04T16:45:52.729Z,4.80
2022-08-04T16:48:22.361Z,5.43
2022-08-04T16:51:04.715Z,5.05
2022-08-04T16:53:52.539Z,5.53
2022-08-04T16:56:33.218Z,5.47
2022-08-04T16:59:08.329Z,5.35
2022-08-04T17:01:36.942Z,4.97
2022-08-04T17:04:06.634Z,5.35
2022-08-04T17:06:38.265Z,5.03
2022-08-04T17:09:08.209Z,5.25
2022-08-04T17:11:36.709Z,5.78
2022-08-04T17:14:06.419Z,5.68
2022-08-04T17:16:37.040Z,5.43
2022-08-04T17:19:06.363Z,5.38
2022-08-04T17:21:37.592Z,4.68
2022-08-04T17:24:16.258Z,5.47
2022-08-04T17:26:54.438Z,5.30
2022-08-04T17:29:44.154Z,5.18
2022-08-04T17:32:19.816Z,4.82
2022-08-04T17:34:49.738Z,5.25
2022-08-04T17:37:38.430Z,4.80
2022-08-04T17:40:11.579Z,5.03
2022-08-04T17:42:41.923Z,4.45
2022-08-04T17:45:49.137Z,4.30
2022-08-04T17:48:02.902Z,4.60
2022-08-04T17:50:35.826Z,5.13
2022-08-04T17:53:12.187Z,4.72
2022-08-04T17:55:42.814Z,5.00
2022-08-04T17:58:20.896Z,4.78
2022-08-04T18:01:22.499Z,5.55
2022-08-04T18:03:51.890Z,5.05
2022-08-04T18:06:23.250Z,5.28
2022-08-04T18:08:59.107Z,4.63
2022-08-04T18:12:03.385Z,4.85
2022-08-04T18:14:45.883Z,4.68
2022-08-04T18:18:20.429Z,4.50
2022-08-04T18:20:21.371Z,4.78
2022-08-04T18:22:51.190Z,4.65
2022-08-04T18:25:22.124Z,4.68
2022-08-04T18:28:14.396Z,4.70
2022-08-04T18:30:55.175Z,4.97
2022-08-04T18:33:40.286Z,4.85
2022-08-04T18:36:33.913Z,4.70
2022-08-04T18:39:12.444Z,4.60
2022-08-04T18:42:01.735Z,4.60
2022-08-04T18:44:32.840Z,4.63
2022-08-04T18:47:23.149Z,4.95
2022-08-04T18:51:00.805Z,5.00
2022-08-04T18:55:57.306Z,4.88
2022-08-04T18:58:27.590Z,5.10
2022-08-04T19:01:00.485Z,4.85
2022-08-04T19:03:32.988Z,4.90
2022-08-04T19:06:02.275Z,5.18
2022-08-04T19:08:35.580Z,5.07
2022-08-04T19:11:36.863Z,4.80
2022-08-04T19:14:00.948Z,5.20
2022-08-04T19:16:31.446Z,4.80
2022-08-04T19:19:00.516Z,4.65
2022-08-04T19:21:58.618Z,4.90
2022-08-04T19:24:32.387Z,5.00
2022-08-04T19:27:07.417Z,4.80
2022-08-04T19:29:41.469Z,5.00
2022-08-04T19:32:14.950Z,4.97
2022-08-04T19:34:47.064Z,4.90
2022-08-04T19:37:56.304Z,4.55
2022-08-04T19:40:10.311Z,5.05
2022-08-04T19:42:38.917Z,5.22
2022-08-04T19:45:15.459Z,5.10
2022-08-04T19:48:16.337Z,5.30
2022-08-04T19:50:33.501Z,5.07
2022-08-04T19:53:02.052Z,4.95
2022-08-04T19:55:49.743Z,5.35
2022-08-04T19:58:21.682Z,5.18
2022-08-04T20:00:56.373Z,4.53
2022-08-04T20:04:10.069Z,5.43
2022-08-04T20:06:13.367Z,5.18
2022-08-04T20:08:48.343Z,5.22
2022-08-04T20:11:18.901Z,5.40
2022-08-04T20:13:54.657Z,5.20
2022-08-04T20:20:50.083Z,5.35
2022-08-04T20:23:18.940Z,4.90
2022-08-04T20:26:08.618Z,5.60
2022-08-04T20:28:38.397Z,5.40
2022-08-04T20:31:09.979Z,5.43
2022-08-04T20:33:49.367Z,5.28
2022-08-04T20:36:23.943Z,5.32
2022-08-04T20:38:54.603Z,5.30
2022-08-04T20:41:23.334Z,5.30
2022-08-04T20:43:51.815Z,5.20
2022-08-04T20:46:29.242Z,5.45
2022-08-04T20:48:58.416Z,5.32
2022-08-04T20:51:31.987Z,5.65
2022-08-04T20:54:03.469Z,5.63
2022-08-04T20:56:51.189Z,5.38
2022-08-04T20:59:22.602Z,5.65
2022-08-04T21:01:53.630Z,5.88
2022-08-04T21:04:35.857Z,5.38
2022-08-04T21:07:07.102Z,5.70
2022-08-04T21:09:42.458Z,5.68
2022-08-04T21:12:27.560Z,5.82
2022-08-04T21:14:57.958Z,5.53
2022-08-04T21:17:58.590Z,5.38
2022-08-04T21:20:24.665Z,5.50
2022-08-04T21:22:59.712Z,6.00
2022-08-04T21:25:30.937Z,5.97
2022-08-04T21:28:04.200Z,5.93
2022-08-04T21:30:37.082Z,6.20
2022-08-04T21:33:22.120Z,5.78
2022-08-04T21:35:54.183Z,5.75
2022-08-04T21:41:13.784Z,6.07
2022-08-04T21:43:52.999Z,6.03
2022-08-04T21:46:21.798Z,5.72
2022-08-04T21:48:50.363Z,6.07
2022-08-04T21:51:56.815Z,6.32
2022-08-04T21:54:15.303Z,6.82
2022-08-04T21:56:50.982Z,6.18
2022-08-04T21:59:24.010Z,6.40
2022-08-04T22:02:01.774Z,6.53
2022-08-04T22:04:31.028Z,6.20
2022-08-04T22:07:03.253Z,6.70
2022-08-04T22:09:37.799Z,6.07
2022-08-04T22:12:11.794Z,6.07
2022-08-04T22:14:40.817Z,6.50
2022-08-04T22:17:13.818Z,6.30
2022-08-04T22:19:55.861Z,6.07
2022-08-04T22:22:29.328Z,6.63
2022-08-04T22:25:02.071Z,6.80
2022-08-04T22:27:57.979Z,6.88
2022-08-04T22:30:36.382Z,6.55
2022-08-04T22:33:07.453Z,7.28
2022-08-04T22:35:49.417Z,7.60
2022-08-04T22:38:31.761Z,6.45
2022-08-04T22:41:10.605Z,6.85
2022-08-04T22:43:39.901Z,6.95
2022-08-04T22:46:11.955Z,7.05
2022-08-04T22:48:43.319Z,7.45
2022-08-04T22:51:13.013Z,7.22
2022-08-04T22:53:41.879Z,6.97
2022-08-04T22:56:37.185Z,6.50
2022-08-04T22:59:10.083Z,7.00
2022-08-04T23:01:58.792Z,6.78
2022-08-04T23:04:28.195Z,7.30
2022-08-04T23:06:56.805Z,7.00
2022-08-04T23:09:49.075Z,7.25
2022-08-04T23:12:24.225Z,7.70
2022-08-04T23:14:55.248Z,7.20
2022-08-04T23:17:25.441Z,7.22
2022-08-04T23:19:58.260Z,7.50
2022-08-04T23:22:41.034Z,6.55
2022-08-04T23:25:16.184Z,6.72
2022-08-04T23:27:51.133Z,6.47
2022-08-04T23:30:24.645Z,7.07
2022-08-04T23:32:58.405Z,6.50
2022-08-04T23:35:27.198Z,7.20
2022-08-04T23:37:57.014Z,7.28
2022-08-04T23:40:33.706Z,6.50
2022-08-04T23:43:17.125Z,6.80
2022-08-04T23:46:06.634Z,6.90
2022-08-04T23:48:35.996Z,6.00
2022-08-04T23:51:13.724Z,6.45
2022-08-04T23:53:52.284Z,6.32
2022-08-04T23:56:32.061Z,6.90
2022-08-04T23:59:03.717Z,6.20
